Terminal Aerodrome Forecast
Issued by NWS Jackson, KY

Home | Current Version | Previous Version | Graphics & Text | Print | Product List | Glossary On
Versions: 1 2 3 4 5 6 7 8 9 10 11 12 13 14 15 16 17
711
FTUS43 KJKL 281739
TAFLOZ
TAF
KLOZ 281739Z 2818/2918 VRB04KT 3SM -RA BR VCTS BKN008 OVC015CB
      TEMPO 2818/2822 VRB03G14KT 1 1/2SM TSRA BR BKN008 OVC015CB
     FM290400 VRB03KT 4SM BR VCTS OVC008CB
     FM290600 25004KT 1/2SM FG OVC003
     FM291400 VRB03KT 6SM BR VCTS BKN008 OVC015CB=

USA.gov is the U.S. government's official web portal to all federal, state and local government web resources and services.